sensor_id;sensor_type;location;lat;lon;timestamp;temperature;humidity
1297;DHT22;641;48.492;9.184;2023-02-28T00:01:55;0.00;97.30
1297;DHT22;641;48.492;9.184;2023-02-28T00:04:21;0.20;97.20
1297;DHT22;641;48.492;9.184;2023-02-28T00:06:49;0.10;97.20
1297;DHT22;641;48.492;9.184;2023-02-28T00:09:15;0.20;97.00
1297;DHT22;641;48.492;9.184;2023-02-28T00:11:45;0.20;97.40
1297;DHT22;641;48.492;9.184;2023-02-28T00:14:15;0.40;96.90
1297;DHT22;641;48.492;9.184;2023-02-28T00:16:45;0.20;96.90
1297;DHT22;641;48.492;9.184;2023-02-28T00:19:14;0.40;97.00
1297;DHT22;641;48.492;9.184;2023-02-28T00:21:42;0.20;97.50
1297;DHT22;641;48.492;9.184;2023-02-28T00:24:09;0.10;97.60
1297;DHT22;641;48.492;9.184;2023-02-28T00:26:35;0.20;97.40
1297;DHT22;641;48.492;9.184;2023-02-28T00:29:00;0.30;97.40
1297;DHT22;641;48.492;9.184;2023-02-28T00:31:26;0.30;97.10
1297;DHT22;641;48.492;9.184;2023-02-28T00:33:59;0.00;97.90
1297;DHT22;641;48.492;9.184;2023-02-28T00:36:24;0.00;98.00
1297;DHT22;641;48.492;9.184;2023-02-28T00:38:53;0.00;98.10
1297;DHT22;641;48.492;9.184;2023-02-28T00:41:25;0.00;98.20
1297;DHT22;641;48.492;9.184;2023-02-28T00:43:50;-0.10;98.40
1297;DHT22;641;48.492;9.184;2023-02-28T00:46:16;0.00;97.90
1297;DHT22;641;48.492;9.184;2023-02-28T00:48:53;0.10;98.00
1297;DHT22;641;48.492;9.184;2023-02-28T00:51:19;0.10;97.70
1297;DHT22;641;48.492;9.184;2023-02-28T00:53:46;0.00;98.00
1297;DHT22;641;48.492;9.184;2023-02-28T00:56:14;-0.10;98.20
1297;DHT22;641;48.492;9.184;2023-02-28T00:58:41;-0.10;98.30
1297;DHT22;641;48.492;9.184;2023-02-28T01:01:13;-0.20;98.80
1297;DHT22;641;48.492;9.184;2023-02-28T01:03:43;-0.10;98.30
1297;DHT22;641;48.492;9.184;2023-02-28T01:06:09;0.00;98.70
1297;DHT22;641;48.492;9.184;2023-02-28T01:08:36;0.20;98.40
1297;DHT22;641;48.492;9.184;2023-02-28T01:11:14;-0.10;99.10
1297;DHT22;641;48.492;9.184;2023-02-28T01:13:42;0.20;99.30
1297;DHT22;641;48.492;9.184;2023-02-28T01:16:14;0.00;99.10
1297;DHT22;641;48.492;9.184;2023-02-28T01:18:44;-0.20;99.90
1297;DHT22;641;48.492;9.184;2023-02-28T01:21:14;-0.10;99.90
1297;DHT22;641;48.492;9.184;2023-02-28T01:23:42;-0.10;99.90
1297;DHT22;641;48.492;9.184;2023-02-28T01:26:14;0.00;99.90
1297;DHT22;641;48.492;9.184;2023-02-28T01:28:40;-0.10;99.90
1297;DHT22;641;48.492;9.184;2023-02-28T01:31:08;-0.20;99.90
1297;DHT22;641;48.492;9.184;2023-02-28T01:33:35;0.00;99.90
1297;DHT22;641;48.492;9.184;2023-02-28T01:36:17;-0.20;99.90
1297;DHT22;641;48.492;9.184;2023-02-28T01:38:45;-0.20;99.90
1297;DHT22;641;48.492;9.184;2023-02-28T01:41:26;-0.10;99.90
1297;DHT22;641;48.492;9.184;2023-02-28T01:46:19;-0.20;99.90
1297;DHT22;641;48.492;9.184;2023-02-28T01:48:50;-0.30;99.90
1297;DHT22;641;48.492;9.184;2023-02-28T01:51:26;-0.20;99.90
1297;DHT22;641;48.492;9.184;2023-02-28T01:53:58;-0.10;99.90
1297;DHT22;641;48.492;9.184;2023-02-28T01:56:29;-0.10;99.90
1297;DHT22;641;48.492;9.184;2023-02-28T01:58:57;-0.30;99.90
1297;DHT22;641;48.492;9.184;2023-02-28T02:01:30;-0.40;99.90
1297;DHT22;641;48.492;9.184;2023-02-28T02:03:59;-0.50;99.90
1297;DHT22;641;48.492;9.184;2023-02-28T02:06:49;-0.40;99.90
1297;DHT22;641;48.492;9.184;2023-02-28T02:09:15;-0.30;99.90
1297;DHT22;641;48.492;9.184;2023-02-28T02:11:42;-0.30;99.90
1297;DHT22;641;48.492;9.184;2023-02-28T02:14:25;-0.50;99.90
1297;DHT22;641;48.492;9.184;2023-02-28T02:20:16;-0.40;99.90
1297;DHT22;641;48.492;9.184;2023-02-28T02:26:42;-0.30;99.90
1297;DHT22;641;48.492;9.184;2023-02-28T02:29:39;-0.60;99.90
1297;DHT22;641;48.492;9.184;2023-02-28T02:38:11;-0.40;99.90
1297;DHT22;641;48.492;9.184;2023-02-28T02:40:51;-0.70;99.90
1297;DHT22;641;48.492;9.184;2023-02-28T02:43:39;-0.40;99.90
1297;DHT22;641;48.492;9.184;2023-02-28T02:46:20;-0.40;99.90
1297;DHT22;641;48.492;9.184;2023-02-28T02:48:48;-0.20;99.90
1297;DHT22;641;48.492;9.184;2023-02-28T02:51:17;-0.40;99.90
1297;DHT22;641;48.492;9.184;2023-02-28T02:53:57;-0.40;99.90
1297;DHT22;641;48.492;9.184;2023-02-28T02:56:27;-0.30;99.90
1297;DHT22;641;48.492;9.184;2023-02-28T02:59:01;-0.20;99.90
1297;DHT22;641;48.492;9.184;2023-02-28T03:01:30;-0.10;99.90
1297;DHT22;641;48.492;9.184;2023-02-28T03:04:01;-0.40;99.90
1297;DHT22;641;48.492;9.184;2023-02-28T03:06:28;-0.50;99.90
1297;DHT22;641;48.492;9.184;2023-02-28T03:08:55;-0.20;99.90
1297;DHT22;641;48.492;9.184;2023-02-28T03:11:22;-0.10;99.90
1297;DHT22;641;48.492;9.184;2023-02-28T03:19:47;0.00;99.90
1297;DHT22;641;48.492;9.184;2023-02-28T03:25:33;0.20;99.90
1297;DHT22;641;48.492;9.184;2023-02-28T03:31:03;0.20;99.90
1297;DHT22;641;48.492;9.184;2023-02-28T03:34:21;0.50;99.90
1297;DHT22;641;48.492;9.184;2023-02-28T03:36:55;0.30;99.90
1297;DHT22;641;48.492;9.184;2023-02-28T03:39:31;0.20;99.90
1297;DHT22;641;48.492;9.184;2023-02-28T03:42:22;-0.10;99.90
1297;DHT22;641;48.492;9.184;2023-02-28T03:44:53;0.00;99.90
1297;DHT22;641;48.492;9.184;2023-02-28T03:47:36;0.10;99.90
1297;DHT22;641;48.492;9.184;2023-02-28T03:50:17;0.30;99.90
1297;DHT22;641;48.492;9.184;2023-02-28T03:56:37;0.10;99.90
1297;DHT22;641;48.492;9.184;2023-02-28T03:59:13;0.10;99.90
1297;DHT22;641;48.492;9.184;2023-02-28T04:01:47;-0.10;99.90
1297;DHT22;641;48.492;9.184;2023-02-28T04:04:17;-0.20;99.90
1297;DHT22;641;48.492;9.184;2023-02-28T04:06:52;0.00;99.90
1297;DHT22;641;48.492;9.184;2023-02-28T04:09:22;-0.20;99.90
1297;DHT22;641;48.492;9.184;2023-02-28T04:11:53;0.10;99.90
1297;DHT22;641;48.492;9.184;2023-02-28T04:18:05;0.20;99.90
1297;DHT22;641;48.492;9.184;2023-02-28T04:23:56;0.20;99.90
1297;DHT22;641;48.492;9.184;2023-02-28T04:26:33;-0.10;99.90
1297;DHT22;641;48.492;9.184;2023-02-28T04:36:05;0.10;99.90
1297;DHT22;641;48.492;9.184;2023-02-28T04:38:38;0.10;99.90
1297;DHT22;641;48.492;9.184;2023-02-28T04:41:15;0.00;99.90
1297;DHT22;641;48.492;9.184;2023-02-28T04:43:52;0.10;99.90
1297;DHT22;641;48.492;9.184;2023-02-28T04:46:19;0.10;99.90
1297;DHT22;641;48.492;9.184;2023-02-28T04:48:47;0.20;99.90
1297;DHT22;641;48.492;9.184;2023-02-28T04:51:15;0.10;99.90
1297;DHT22;641;48.492;9.184;2023-02-28T04:53:42;0.30;99.90
1297;DHT22;641;48.492;9.184;2023-02-28T04:56:12;0.00;99.90
1297;DHT22;641;48.492;9.184;2023-02-28T04:58:40;-0.10;99.90
1297;DHT22;641;48.492;9.184;2023-02-28T05:03:46;0.30;99.90
1297;DHT22;641;48.492;9.184;2023-02-28T05:06:13;0.20;99.90
1297;DHT22;641;48.492;9.184;2023-02-28T05:08:40;0.00;99.90
1297;DHT22;641;48.492;9.184;2023-02-28T05:11:15;0.00;99.90
1297;DHT22;641;48.492;9.184;2023-02-28T05:13:42;0.00;99.90
1297;DHT22;641;48.492;9.184;2023-02-28T05:16:07;0.10;99.90
1297;DHT22;641;48.492;9.184;2023-02-28T05:18:36;0.00;99.90
1297;DHT22;641;48.492;9.184;2023-02-28T05:21:04;0.10;99.90
1297;DHT22;641;48.492;9.184;2023-02-28T05:23:37;0.00;99.90
1297;DHT22;641;48.492;9.184;2023-02-28T05:26:04;0.00;99.90
1297;DHT22;641;48.492;9.184;2023-02-28T05:28:29;-0.10;99.90
1297;DHT22;641;48.492;9.184;2023-02-28T05:30:55;0.20;99.90
1297;DHT22;641;48.492;9.184;2023-02-28T05:33:22;0.00;99.90
1297;DHT22;641;48.492;9.184;2023-02-28T05:35:48;-0.10;99.90
1297;DHT22;641;48.492;9.184;2023-02-28T05:38:14;0.10;99.90
1297;DHT22;641;48.492;9.184;2023-02-28T05:40:40;0.20;99.90
1297;DHT22;641;48.492;9.184;2023-02-28T05:43:10;0.10;99.90
1297;DHT22;641;48.492;9.184;2023-02-28T05:45:37;0.10;99.90
1297;DHT22;641;48.492;9.184;2023-02-28T05:48:04;0.20;99.90
1297;DHT22;641;48.492;9.184;2023-02-28T05:50:30;0.20;99.90
1297;DHT22;641;48.492;9.184;2023-02-28T05:52:56;0.30;99.90
1297;DHT22;641;48.492;9.184;2023-02-28T05:55:22;0.40;99.90
1297;DHT22;641;48.492;9.184;2023-02-28T05:57:48;0.10;99.90
1297;DHT22;641;48.492;9.184;2023-02-28T06:00:18;0.30;99.90
1297;DHT22;641;48.492;9.184;2023-02-28T06:02:45;0.20;99.90
1297;DHT22;641;48.492;9.184;2023-02-28T06:05:20;0.10;99.90
1297;DHT22;641;48.492;9.184;2023-02-28T06:07:47;0.20;99.90
1297;DHT22;641;48.492;9.184;2023-02-28T06:10:14;0.40;99.90
1297;DHT22;641;48.492;9.184;2023-02-28T06:12:41;0.30;99.90
1297;DHT22;641;48.492;9.184;2023-02-28T06:15:12;0.40;99.90
1297;DHT22;641;48.492;9.184;2023-02-28T06:17:39;0.50;99.90
1297;DHT22;641;48.492;9.184;2023-02-28T06:20:05;0.40;99.90
1297;DHT22;641;48.492;9.184;2023-02-28T06:22:31;0.30;99.90
1297;DHT22;641;48.492;9.184;2023-02-28T06:24:57;0.40;99.90
1297;DHT22;641;48.492;9.184;2023-02-28T06:27:23;0.30;99.90
1297;DHT22;641;48.492;9.184;2023-02-28T06:29:53;0.10;99.90
1297;DHT22;641;48.492;9.184;2023-02-28T06:32:19;0.20;99.90
1297;DHT22;641;48.492;9.184;2023-02-28T06:34:45;0.10;99.90
1297;DHT22;641;48.492;9.184;2023-02-28T06:37:11;0.30;99.90
1297;DHT22;641;48.492;9.184;2023-02-28T06:39:36;0.20;99.90
1297;DHT22;641;48.492;9.184;2023-02-28T06:42:03;0.20;99.90
1297;DHT22;641;48.492;9.184;2023-02-28T06:44:28;0.10;99.90
1297;DHT22;641;48.492;9.184;2023-02-28T06:47:03;0.10;99.90
1297;DHT22;641;48.492;9.184;2023-02-28T06:49:36;0.10;99.90
1297;DHT22;641;48.492;9.184;2023-02-28T06:52:08;0.20;99.90
1297;DHT22;641;48.492;9.184;2023-02-28T06:54:37;0.10;99.90
1297;DHT22;641;48.492;9.184;2023-02-28T06:57:04;0.10;99.90
1297;DHT22;641;48.492;9.184;2023-02-28T06:59:35;0.00;99.90
1297;DHT22;641;48.492;9.184;2023-02-28T07:02:09;0.20;99.90
1297;DHT22;641;48.492;9.184;2023-02-28T07:04:36;0.20;99.90
1297;DHT22;641;48.492;9.184;2023-02-28T07:07:02;0.50;99.90
1297;DHT22;641;48.492;9.184;2023-02-28T07:09:28;0.60;99.90
1297;DHT22;641;48.492;9.184;2023-02-28T07:11:55;0.50;99.90
1297;DHT22;641;48.492;9.184;2023-02-28T07:14:20;0.40;99.90
1297;DHT22;641;48.492;9.184;2023-02-28T07:16:47;0.60;99.90
1297;DHT22;641;48.492;9.184;2023-02-28T07:19:13;0.50;99.90
1297;DHT22;641;48.492;9.184;2023-02-28T07:21:39;0.30;99.90
1297;DHT22;641;48.492;9.184;2023-02-28T07:24:05;0.30;99.90
1297;DHT22;641;48.492;9.184;2023-02-28T07:26:31;0.40;99.90
1297;DHT22;641;48.492;9.184;2023-02-28T07:28:59;0.50;99.90
1297;DHT22;641;48.492;9.184;2023-02-28T07:31:25;0.60;99.90
1297;DHT22;641;48.492;9.184;2023-02-28T07:33:51;0.50;99.90
1297;DHT22;641;48.492;9.184;2023-02-28T07:36:17;0.60;99.90
1297;DHT22;641;48.492;9.184;2023-02-28T07:38:47;0.40;99.90
1297;DHT22;641;48.492;9.184;2023-02-28T07:41:17;0.50;99.90
1297;DHT22;641;48.492;9.184;2023-02-28T07:43:44;0.50;99.90
1297;DHT22;641;48.492;9.184;2023-02-28T07:46:12;0.60;99.90
1297;DHT22;641;48.492;9.184;2023-02-28T07:48:38;0.60;99.90
1297;DHT22;641;48.492;9.184;2023-02-28T07:51:04;0.70;99.90
1297;DHT22;641;48.492;9.184;2023-02-28T07:53:30;0.80;99.90
1297;DHT22;641;48.492;9.184;2023-02-28T07:56:00;1.00;99.90
1297;DHT22;641;48.492;9.184;2023-02-28T07:58:27;1.10;99.90
1297;DHT22;641;48.492;9.184;2023-02-28T08:00:53;0.90;99.90
1297;DHT22;641;48.492;9.184;2023-02-28T08:03:20;0.60;99.90
1297;DHT22;641;48.492;9.184;2023-02-28T08:05:47;0.60;99.90
1297;DHT22;641;48.492;9.184;2023-02-28T08:08:13;0.70;99.90
1297;DHT22;641;48.492;9.184;2023-02-28T08:10:39;0.90;99.90
1297;DHT22;641;48.492;9.184;2023-02-28T08:13:05;0.80;99.90
1297;DHT22;641;48.492;9.184;2023-02-28T08:15:31;0.80;99.90
1297;DHT22;641;48.492;9.184;2023-02-28T08:17:57;0.60;99.90
1297;DHT22;641;48.492;9.184;2023-02-28T08:20:23;0.90;99.90
1297;DHT22;641;48.492;9.184;2023-02-28T08:22:52;0.90;99.90
1297;DHT22;641;48.492;9.184;2023-02-28T08:25:18;0.80;99.90
1297;DHT22;641;48.492;9.184;2023-02-28T08:27:44;0.40;99.90
1297;DHT22;641;48.492;9.184;2023-02-28T08:30:14;0.60;99.90
1297;DHT22;641;48.492;9.184;2023-02-28T08:32:40;0.40;99.90
1297;DHT22;641;48.492;9.184;2023-02-28T08:35:06;0.40;99.90
1297;DHT22;641;48.492;9.184;2023-02-28T08:37:34;0.50;99.90
1297;DHT22;641;48.492;9.184;2023-02-28T08:40:00;0.80;99.90
1297;DHT22;641;48.492;9.184;2023-02-28T08:42:25;0.80;99.90
1297;DHT22;641;48.492;9.184;2023-02-28T08:44:51;0.60;99.90
1297;DHT22;641;48.492;9.184;2023-02-28T08:47:16;0.70;99.90
1297;DHT22;641;48.492;9.184;2023-02-28T08:49:42;0.70;99.90
1297;DHT22;641;48.492;9.184;2023-02-28T08:52:11;0.80;99.90
1297;DHT22;641;48.492;9.184;2023-02-28T08:54:36;1.00;99.90
1297;DHT22;641;48.492;9.184;2023-02-28T08:57:02;1.20;99.90
1297;DHT22;641;48.492;9.184;2023-02-28T08:59:28;1.10;99.80
1297;DHT22;641;48.492;9.184;2023-02-28T09:01:54;1.20;99.90
1297;DHT22;641;48.492;9.184;2023-02-28T09:04:20;1.00;99.90
1297;DHT22;641;48.492;9.184;2023-02-28T09:06:46;1.10;99.90
1297;DHT22;641;48.492;9.184;2023-02-28T09:09:15;1.00;99.90
1297;DHT22;641;48.492;9.184;2023-02-28T09:11:41;1.10;99.90
1297;DHT22;641;48.492;9.184;2023-02-28T09:14:07;1.30;99.90
1297;DHT22;641;48.492;9.184;2023-02-28T09:16:34;1.10;99.90
1297;DHT22;641;48.492;9.184;2023-02-28T09:19:00;1.20;99.90
1297;DHT22;641;48.492;9.184;2023-02-28T09:21:27;1.20;99.90
1297;DHT22;641;48.492;9.184;2023-02-28T09:23:53;1.30;99.90
1297;DHT22;641;48.492;9.184;2023-02-28T10:00:06;1.50;99.60
1297;DHT22;641;48.492;9.184;2023-02-28T10:02:58;1.60;99.70
1297;DHT22;641;48.492;9.184;2023-02-28T10:05:41;1.90;99.70
1297;DHT22;641;48.492;9.184;2023-02-28T10:10:45;2.00;99.50
1297;DHT22;641;48.492;9.184;2023-02-28T10:15:58;2.10;99.00
1297;DHT22;641;48.492;9.184;2023-02-28T10:19:04;1.90;99.00
1297;DHT22;641;48.492;9.184;2023-02-28T10:26:58;1.70;99.30
1297;DHT22;641;48.492;9.184;2023-02-28T10:29:26;2.00;99.10
1297;DHT22;641;48.492;9.184;2023-02-28T10:31:52;2.00;98.90
1297;DHT22;641;48.492;9.184;2023-02-28T10:34:17;2.20;98.90
1297;DHT22;641;48.492;9.184;2023-02-28T10:36:46;2.30;99.00
1297;DHT22;641;48.492;9.184;2023-02-28T10:39:38;2.60;98.60
1297;DHT22;641;48.492;9.184;2023-02-28T10:42:05;2.50;98.20
1297;DHT22;641;48.492;9.184;2023-02-28T10:44:43;2.40;98.20
1297;DHT22;641;48.492;9.184;2023-02-28T10:47:15;2.40;98.10
1297;DHT22;641;48.492;9.184;2023-02-28T10:49:47;2.40;98.60
1297;DHT22;641;48.492;9.184;2023-02-28T10:52:16;2.50;98.60
1297;DHT22;641;48.492;9.184;2023-02-28T10:55:23;2.70;98.50
1297;DHT22;641;48.492;9.184;2023-02-28T10:57:50;2.80;98.10
1297;DHT22;641;48.492;9.184;2023-02-28T11:00:24;3.00;98.10
1297;DHT22;641;48.492;9.184;2023-02-28T11:02:56;3.30;97.60
1297;DHT22;641;48.492;9.184;2023-02-28T11:05:33;3.10;97.70
1297;DHT22;641;48.492;9.184;2023-02-28T11:08:13;3.00;98.10
1297;DHT22;641;48.492;9.184;2023-02-28T11:11:12;3.20;97.80
1297;DHT22;641;48.492;9.184;2023-02-28T11:13:40;3.00;97.50
1297;DHT22;641;48.492;9.184;2023-02-28T11:16:11;3.30;97.50
1297;DHT22;641;48.492;9.184;2023-02-28T11:18:49;3.10;97.20
1297;DHT22;641;48.492;9.184;2023-02-28T11:21:22;3.10;97.30
1297;DHT22;641;48.492;9.184;2023-02-28T11:23:51;3.00;97.40
1297;DHT22;641;48.492;9.184;2023-02-28T11:29:16;3.10;97.60
1297;DHT22;641;48.492;9.184;2023-02-28T11:31:42;3.10;97.60
1297;DHT22;641;48.492;9.184;2023-02-28T11:34:26;3.20;97.20
1297;DHT22;641;48.492;9.184;2023-02-28T11:36:55;3.00;97.40
1297;DHT22;641;48.492;9.184;2023-02-28T11:39:22;3.20;96.60
1297;DHT22;641;48.492;9.184;2023-02-28T11:42:01;3.10;97.00
1297;DHT22;641;48.492;9.184;2023-02-28T11:47:34;2.90;97.60
1297;DHT22;641;48.492;9.184;2023-02-28T11:53:05;3.00;97.70
1297;DHT22;641;48.492;9.184;2023-02-28T11:55:38;3.10;97.90
1297;DHT22;641;48.492;9.184;2023-02-28T12:00:50;3.30;96.80
1297;DHT22;641;48.492;9.184;2023-02-28T12:06:09;2.80;97.40
1297;DHT22;641;48.492;9.184;2023-02-28T12:27:09;3.50;97.60
1297;DHT22;641;48.492;9.184;2023-02-28T12:29:58;3.90;96.70
1297;DHT22;641;48.492;9.184;2023-02-28T12:35:04;4.00;96.00
1297;DHT22;641;48.492;9.184;2023-02-28T12:40:11;3.40;96.50
1297;DHT22;641;48.492;9.184;2023-02-28T12:42:41;3.50;97.50
1297;DHT22;641;48.492;9.184;2023-02-28T12:47:42;3.60;96.70
1297;DHT22;641;48.492;9.184;2023-02-28T12:50:11;3.90;96.50
1297;DHT22;641;48.492;9.184;2023-02-28T13:04:32;4.20;96.20
1297;DHT22;641;48.492;9.184;2023-02-28T13:10:08;4.50;96.30
1297;DHT22;641;48.492;9.184;2023-02-28T13:12:35;4.30;96.20
1297;DHT22;641;48.492;9.184;2023-02-28T13:15:25;4.30;96.30
1297;DHT22;641;48.492;9.184;2023-02-28T13:17:56;4.30;96.30
1297;DHT22;641;48.492;9.184;2023-02-28T13:20:29;4.40;96.50
1297;DHT22;641;48.492;9.184;2023-02-28T13:22:55;4.50;96.50
1297;DHT22;641;48.492;9.184;2023-02-28T13:27:52;4.60;95.90
1297;DHT22;641;48.492;9.184;2023-02-28T13:33:36;4.90;96.00
1297;DHT22;641;48.492;9.184;2023-02-28T13:38:46;4.80;95.20
1297;DHT22;641;48.492;9.184;2023-02-28T13:48:56;5.10;94.60
1297;DHT22;641;48.492;9.184;2023-02-28T13:59:59;4.90;94.10
1297;DHT22;641;48.492;9.184;2023-02-28T14:02:41;5.00;94.80
1297;DHT22;641;48.492;9.184;2023-02-28T14:05:15;5.20;95.20
1297;DHT22;641;48.492;9.184;2023-02-28T14:07:48;5.30;94.70
1297;DHT22;641;48.492;9.184;2023-02-28T14:10:39;5.40;94.40
1297;DHT22;641;48.492;9.184;2023-02-28T14:15:58;5.40;94.60
1297;DHT22;641;48.492;9.184;2023-02-28T14:18:26;5.40;94.70
1297;DHT22;641;48.492;9.184;2023-02-28T14:23:43;5.60;93.50
1297;DHT22;641;48.492;9.184;2023-02-28T14:26:44;5.50;94.30
1297;DHT22;641;48.492;9.184;2023-02-28T14:32:18;5.70;93.40
1297;DHT22;641;48.492;9.184;2023-02-28T14:35:18;5.70;93.70
1297;DHT22;641;48.492;9.184;2023-02-28T14:40:24;5.70;93.60
1297;DHT22;641;48.492;9.184;2023-02-28T14:42:57;5.40;94.00
1297;DHT22;641;48.492;9.184;2023-02-28T14:45:23;5.40;94.30
1297;DHT22;641;48.492;9.184;2023-02-28T14:47:50;5.40;93.90
1297;DHT22;641;48.492;9.184;2023-02-28T14:50:24;5.50;94.40
1297;DHT22;641;48.492;9.184;2023-02-28T14:52:54;5.60;94.20
1297;DHT22;641;48.492;9.184;2023-02-28T15:00:48;5.90;92.80
1297;DHT22;641;48.492;9.184;2023-02-28T15:06:13;5.90;92.70
1297;DHT22;641;48.492;9.184;2023-02-28T15:08:39;5.60;93.50
1297;DHT22;641;48.492;9.184;2023-02-28T15:13:41;5.70;93.30
1297;DHT22;641;48.492;9.184;2023-02-28T15:16:58;5.70;93.60
1297;DHT22;641;48.492;9.184;2023-02-28T15:19:24;5.90;93.50
1297;DHT22;641;48.492;9.184;2023-02-28T15:22:11;5.90;93.40
1297;DHT22;641;48.492;9.184;2023-02-28T15:24:46;6.00;93.20
1297;DHT22;641;48.492;9.184;2023-02-28T15:27:24;5.90;93.30
1297;DHT22;641;48.492;9.184;2023-02-28T15:29:55;5.80;93.50
1297;DHT22;641;48.492;9.184;2023-02-28T15:32:26;5.80;93.30
1297;DHT22;641;48.492;9.184;2023-02-28T15:34:52;5.70;93.20
1297;DHT22;641;48.492;9.184;2023-02-28T15:39:50;5.80;93.30
1297;DHT22;641;48.492;9.184;2023-02-28T15:42:22;5.80;92.60
1297;DHT22;641;48.492;9.184;2023-02-28T15:44:48;6.00;92.80
1297;DHT22;641;48.492;9.184;2023-02-28T15:47:25;5.70;93.20
1297;DHT22;641;48.492;9.184;2023-02-28T15:50:03;5.80;93.60
1297;DHT22;641;48.492;9.184;2023-02-28T15:52:37;5.80;93.30
1297;DHT22;641;48.492;9.184;2023-02-28T15:57:39;5.70;92.90
1297;DHT22;641;48.492;9.184;2023-02-28T16:00:11;5.70;93.50
1297;DHT22;641;48.492;9.184;2023-02-28T16:02:37;5.80;93.60
1297;DHT22;641;48.492;9.184;2023-02-28T16:07:32;6.00;93.20
1297;DHT22;641;48.492;9.184;2023-02-28T16:09:59;6.30;92.80
1297;DHT22;641;48.492;9.184;2023-02-28T16:12:31;6.40;92.70
1297;DHT22;641;48.492;9.184;2023-02-28T16:14:58;6.20;92.70
1297;DHT22;641;48.492;9.184;2023-02-28T16:17:29;6.20;93.00
1297;DHT22;641;48.492;9.184;2023-02-28T16:19:55;6.10;93.10
1297;DHT22;641;48.492;9.184;2023-02-28T16:22:21;5.90;93.40
1297;DHT22;641;48.492;9.184;2023-02-28T16:24:47;5.80;93.30
1297;DHT22;641;48.492;9.184;2023-02-28T16:29:58;5.60;93.30
1297;DHT22;641;48.492;9.184;2023-02-28T16:32:25;5.50;93.70
1297;DHT22;641;48.492;9.184;2023-02-28T16:34:50;5.50;93.50
1297;DHT22;641;48.492;9.184;2023-02-28T16:37:17;5.40;93.60
1297;DHT22;641;48.492;9.184;2023-02-28T16:39:44;5.30;94.10
1297;DHT22;641;48.492;9.184;2023-02-28T16:42:16;5.10;94.20
1297;DHT22;641;48.492;9.184;2023-02-28T16:44:44;5.10;94.40
1297;DHT22;641;48.492;9.184;2023-02-28T16:47:11;5.00;94.50
1297;DHT22;641;48.492;9.184;2023-02-28T16:49:37;5.00;94.60
1297;DHT22;641;48.492;9.184;2023-02-28T16:52:02;5.00;94.60
1297;DHT22;641;48.492;9.184;2023-02-28T16:54:28;4.90;94.80
1297;DHT22;641;48.492;9.184;2023-02-28T16:56:54;5.00;95.00
1297;DHT22;641;48.492;9.184;2023-02-28T16:59:22;5.00;94.80
1297;DHT22;641;48.492;9.184;2023-02-28T17:01:50;5.20;94.20
1297;DHT22;641;48.492;9.184;2023-02-28T17:04:15;5.20;94.30
1297;DHT22;641;48.492;9.184;2023-02-28T17:06:41;5.50;94.20
1297;DHT22;641;48.492;9.184;2023-02-28T17:09:15;5.50;94.20
1297;DHT22;641;48.492;9.184;2023-02-28T17:11:41;5.10;94.80
1297;DHT22;641;48.492;9.184;2023-02-28T17:21:29;4.90;94.70
1297;DHT22;641;48.492;9.184;2023-02-28T17:23:55;4.70;94.70
1297;DHT22;641;48.492;9.184;2023-02-28T17:26:21;4.60;95.40
1297;DHT22;641;48.492;9.184;2023-02-28T17:28:50;4.70;95.50
1297;DHT22;641;48.492;9.184;2023-02-28T17:31:16;4.60;95.30
1297;DHT22;641;48.492;9.184;2023-02-28T17:36:19;4.60;95.40
1297;DHT22;641;48.492;9.184;2023-02-28T17:38:47;4.60;95.50
1297;DHT22;641;48.492;9.184;2023-02-28T17:41:13;4.30;95.90
1297;DHT22;641;48.492;9.184;2023-02-28T17:50:58;4.30;95.50
1297;DHT22;641;48.492;9.184;2023-02-28T17:55:50;4.20;95.70
1297;DHT22;641;48.492;9.184;2023-02-28T17:58:17;4.90;96.60
1297;DHT22;641;48.492;9.184;2023-02-28T18:03:10;4.30;96.00
1297;DHT22;641;48.492;9.184;2023-02-28T18:05:36;3.90;96.50
1297;DHT22;641;48.492;9.184;2023-02-28T18:08:02;3.90;96.90
1297;DHT22;641;48.492;9.184;2023-02-28T18:10:28;4.20;96.60
1297;DHT22;641;48.492;9.184;2023-02-28T18:12:53;4.20;96.50
1297;DHT22;641;48.492;9.184;2023-02-28T18:15:21;4.00;96.60
1297;DHT22;641;48.492;9.184;2023-02-28T18:17:48;4.00;96.40
1297;DHT22;641;48.492;9.184;2023-02-28T18:20:14;3.70;97.00
1297;DHT22;641;48.492;9.184;2023-02-28T18:22:41;4.00;97.10
1297;DHT22;641;48.492;9.184;2023-02-28T18:29:59;4.10;96.50
1297;DHT22;641;48.492;9.184;2023-02-28T18:32:28;4.20;99.90
1297;DHT22;641;48.492;9.184;2023-02-28T18:34:57;4.00;96.80
1297;DHT22;641;48.492;9.184;2023-02-28T18:37:22;3.60;99.90
1297;DHT22;641;48.492;9.184;2023-02-28T18:39:51;3.80;99.90
1297;DHT22;641;48.492;9.184;2023-02-28T18:42:19;3.80;99.90
1297;DHT22;641;48.492;9.184;2023-02-28T18:47:12;3.40;97.40
1297;DHT22;641;48.492;9.184;2023-02-28T18:49:37;3.40;97.40
1297;DHT22;641;48.492;9.184;2023-02-28T18:52:03;3.70;97.50
1297;DHT22;641;48.492;9.184;2023-02-28T19:04:24;3.80;97.10
1297;DHT22;641;48.492;9.184;2023-02-28T19:09:16;3.40;97.80
1297;DHT22;641;48.492;9.184;2023-02-28T19:11:42;3.30;98.20
1297;DHT22;641;48.492;9.184;2023-02-28T19:14:08;3.20;98.20
1297;DHT22;641;48.492;9.184;2023-02-28T19:16:33;3.20;98.10
1297;DHT22;641;48.492;9.184;2023-02-28T19:18:59;3.20;98.40
1297;DHT22;641;48.492;9.184;2023-02-28T19:21:25;3.30;98.00
1297;DHT22;641;48.492;9.184;2023-02-28T19:26:19;3.30;97.70
1297;DHT22;641;48.492;9.184;2023-02-28T19:36:05;3.10;98.20
1297;DHT22;641;48.492;9.184;2023-02-28T19:38:31;3.10;98.30
1297;DHT22;641;48.492;9.184;2023-02-28T19:43:30;3.00;98.70
1297;DHT22;641;48.492;9.184;2023-02-28T20:05:32;2.20;99.70
1297;DHT22;641;48.492;9.184;2023-02-28T20:07:58;2.10;99.60
1297;DHT22;641;48.492;9.184;2023-02-28T20:10:23;2.10;99.90
1297;DHT22;641;48.492;9.184;2023-02-28T20:12:49;2.40;99.70
1297;DHT22;641;48.492;9.184;2023-02-28T20:15:15;2.50;99.90
1297;DHT22;641;48.492;9.184;2023-02-28T20:17:41;2.20;99.70
1297;DHT22;641;48.492;9.184;2023-02-28T20:20:08;2.10;99.90
1297;DHT22;641;48.492;9.184;2023-02-28T20:22:36;2.10;99.90
1297;DHT22;641;48.492;9.184;2023-02-28T20:27:28;1.90;99.90
1297;DHT22;641;48.492;9.184;2023-02-28T20:29:54;2.10;99.90
1297;DHT22;641;48.492;9.184;2023-02-28T20:32:19;2.20;99.90
1297;DHT22;641;48.492;9.184;2023-02-28T20:34:45;2.10;99.90
1297;DHT22;641;48.492;9.184;2023-02-28T20:37:11;2.20;99.90
1297;DHT22;641;48.492;9.184;2023-02-28T20:39:37;2.20;99.90
1297;DHT22;641;48.492;9.184;2023-02-28T20:42:02;1.90;99.90
1297;DHT22;641;48.492;9.184;2023-02-28T20:44:28;1.90;99.90
1297;DHT22;641;48.492;9.184;2023-02-28T20:46:54;1.90;99.90
1297;DHT22;641;48.492;9.184;2023-02-28T20:49:19;1.90;99.90
1297;DHT22;641;48.492;9.184;2023-02-28T20:51:45;1.90;99.90
1297;DHT22;641;48.492;9.184;2023-02-28T20:54:11;1.80;99.90
1297;DHT22;641;48.492;9.184;2023-02-28T20:56:36;1.70;99.90
1297;DHT22;641;48.492;9.184;2023-02-28T20:59:02;1.70;99.90
1297;DHT22;641;48.492;9.184;2023-02-28T21:01:28;1.70;99.90
1297;DHT22;641;48.492;9.184;2023-02-28T21:04:00;1.80;99.90
1297;DHT22;641;48.492;9.184;2023-02-28T21:06:28;1.80;99.90
1297;DHT22;641;48.492;9.184;2023-02-28T21:08:55;1.70;99.90
1297;DHT22;641;48.492;9.184;2023-02-28T21:11:27;1.70;99.90
1297;DHT22;641;48.492;9.184;2023-02-28T21:13:53;1.60;99.90
1297;DHT22;641;48.492;9.184;2023-02-28T21:16:21;1.50;99.90
1297;DHT22;641;48.492;9.184;2023-02-28T21:18:48;1.60;99.90
1297;DHT22;641;48.492;9.184;2023-02-28T21:21:19;1.60;99.90
1297;DHT22;641;48.492;9.184;2023-02-28T21:23:46;1.60;99.90
1297;DHT22;641;48.492;9.184;2023-02-28T21:26:16;1.60;99.90
1297;DHT22;641;48.492;9.184;2023-02-28T21:28:43;1.70;99.90
1297;DHT22;641;48.492;9.184;2023-02-28T21:31:14;1.60;99.90